sensor_id;sensor_type;location;lat;lon;timestamp;temperature;humidity
1225;DHT22;602;48.000;7.840;2022-07-18T00:00:52;23.20;81.90
1225;DHT22;602;48.000;7.840;2022-07-18T00:03:19;23.10;82.70
1225;DHT22;602;48.000;7.840;2022-07-18T00:05:47;23.00;82.60
1225;DHT22;602;48.000;7.840;2022-07-18T00:08:14;23.10;82.80
1225;DHT22;602;48.000;7.840;2022-07-18T00:10:44;23.10;83.00
1225;DHT22;602;48.000;7.840;2022-07-18T00:13:11;23.00;83.40
1225;DHT22;602;48.000;7.840;2022-07-18T00:15:39;23.00;84.00
1225;DHT22;602;48.000;7.840;2022-07-18T00:18:06;22.90;82.40
1225;DHT22;602;48.000;7.840;2022-07-18T00:20:33;22.80;81.90
1225;DHT22;602;48.000;7.840;2022-07-18T00:23:02;22.80;81.80
1225;DHT22;602;48.000;7.840;2022-07-18T00:25:29;22.80;81.70
1225;DHT22;602;48.000;7.840;2022-07-18T00:27:57;22.70;81.80
1225;DHT22;602;48.000;7.840;2022-07-18T00:30:24;22.60;81.80
1225;DHT22;602;48.000;7.840;2022-07-18T00:32:52;22.60;82.30
1225;DHT22;602;48.000;7.840;2022-07-18T00:35:19;22.60;82.20
1225;DHT22;602;48.000;7.840;2022-07-18T00:37:49;22.40;82.60
1225;DHT22;602;48.000;7.840;2022-07-18T00:40:18;22.50;83.60
1225;DHT22;602;48.000;7.840;2022-07-18T00:42:45;22.40;83.00
1225;DHT22;602;48.000;7.840;2022-07-18T00:45:12;22.40;83.50
1225;DHT22;602;48.000;7.840;2022-07-18T00:47:39;22.50;83.60
1225;DHT22;602;48.000;7.840;2022-07-18T00:50:07;22.60;84.00
1225;DHT22;602;48.000;7.840;2022-07-18T00:52:35;22.60;84.70
1225;DHT22;602;48.000;7.840;2022-07-18T00:55:02;22.60;85.00
1225;DHT22;602;48.000;7.840;2022-07-18T00:57:31;22.50;85.70
1225;DHT22;602;48.000;7.840;2022-07-18T00:59:58;22.50;86.50
1225;DHT22;602;48.000;7.840;2022-07-18T01:02:42;22.40;86.90
1225;DHT22;602;48.000;7.840;2022-07-18T01:05:09;22.30;87.50
1225;DHT22;602;48.000;7.840;2022-07-18T01:07:37;22.40;87.90
1225;DHT22;602;48.000;7.840;2022-07-18T01:10:05;22.40;88.50
1225;DHT22;602;48.000;7.840;2022-07-18T01:12:33;22.30;88.30
1225;DHT22;602;48.000;7.840;2022-07-18T01:15:00;22.30;89.10
1225;DHT22;602;48.000;7.840;2022-07-18T01:17:27;22.40;89.10
1225;DHT22;602;48.000;7.840;2022-07-18T01:19:54;22.30;87.70
1225;DHT22;602;48.000;7.840;2022-07-18T01:22:23;22.30;85.50
1225;DHT22;602;48.000;7.840;2022-07-18T01:24:49;22.20;86.00
1225;DHT22;602;48.000;7.840;2022-07-18T01:27:18;22.20;85.50
1225;DHT22;602;48.000;7.840;2022-07-18T01:29:47;22.20;86.50
1225;DHT22;602;48.000;7.840;2022-07-18T01:32:15;22.10;85.70
1225;DHT22;602;48.000;7.840;2022-07-18T01:34:42;21.80;85.50
1225;DHT22;602;48.000;7.840;2022-07-18T01:37:11;21.70;85.80
1225;DHT22;602;48.000;7.840;2022-07-18T01:39:39;21.60;85.60
1225;DHT22;602;48.000;7.840;2022-07-18T01:42:08;21.60;85.80
1225;DHT22;602;48.000;7.840;2022-07-18T01:44:36;21.40;86.00
1225;DHT22;602;48.000;7.840;2022-07-18T01:47:05;21.40;86.30
1225;DHT22;602;48.000;7.840;2022-07-18T01:49:32;21.40;86.70
1225;DHT22;602;48.000;7.840;2022-07-18T01:51:59;21.30;86.70
1225;DHT22;602;48.000;7.840;2022-07-18T01:54:30;21.40;86.80
1225;DHT22;602;48.000;7.840;2022-07-18T01:56:59;21.20;87.50
1225;DHT22;602;48.000;7.840;2022-07-18T01:59:26;21.00;88.10
1225;DHT22;602;48.000;7.840;2022-07-18T02:01:53;20.90;88.90
1225;DHT22;602;48.000;7.840;2022-07-18T02:04:20;20.80;89.30
1225;DHT22;602;48.000;7.840;2022-07-18T02:07:07;20.90;90.00
1225;DHT22;602;48.000;7.840;2022-07-18T02:09:34;21.10;89.80
1225;DHT22;602;48.000;7.840;2022-07-18T02:12:02;21.10;89.20
1225;DHT22;602;48.000;7.840;2022-07-18T02:14:29;21.20;88.70
1225;DHT22;602;48.000;7.840;2022-07-18T02:16:56;21.20;88.60
1225;DHT22;602;48.000;7.840;2022-07-18T02:19:23;21.20;88.80
1225;DHT22;602;48.000;7.840;2022-07-18T02:21:50;21.20;88.80
1225;DHT22;602;48.000;7.840;2022-07-18T02:24:16;21.20;88.90
1225;DHT22;602;48.000;7.840;2022-07-18T02:26:43;21.00;89.60
1225;DHT22;602;48.000;7.840;2022-07-18T02:29:11;20.90;89.00
1225;DHT22;602;48.000;7.840;2022-07-18T02:31:38;20.90;89.10
1225;DHT22;602;48.000;7.840;2022-07-18T02:34:05;20.80;90.00
1225;DHT22;602;48.000;7.840;2022-07-18T02:36:36;20.80;90.00
1225;DHT22;602;48.000;7.840;2022-07-18T02:39:03;20.70;90.00
1225;DHT22;602;48.000;7.840;2022-07-18T02:41:30;20.70;90.50
1225;DHT22;602;48.000;7.840;2022-07-18T02:43:57;20.60;90.30
1225;DHT22;602;48.000;7.840;2022-07-18T02:46:25;20.60;90.50
1225;DHT22;602;48.000;7.840;2022-07-18T02:48:52;20.60;90.70
1225;DHT22;602;48.000;7.840;2022-07-18T02:51:19;20.50;90.90
1225;DHT22;602;48.000;7.840;2022-07-18T02:53:46;20.40;91.10
1225;DHT22;602;48.000;7.840;2022-07-18T02:56:13;20.40;91.20
1225;DHT22;602;48.000;7.840;2022-07-18T02:58:39;20.40;91.40
1225;DHT22;602;48.000;7.840;2022-07-18T03:01:07;20.40;91.40
1225;DHT22;602;48.000;7.840;2022-07-18T03:03:35;20.50;91.40
1225;DHT22;602;48.000;7.840;2022-07-18T03:06:02;20.60;91.30
1225;DHT22;602;48.000;7.840;2022-07-18T03:08:29;20.60;91.30
1225;DHT22;602;48.000;7.840;2022-07-18T03:10:55;20.60;91.50
1225;DHT22;602;48.000;7.840;2022-07-18T03:13:22;20.60;91.70
1225;DHT22;602;48.000;7.840;2022-07-18T03:15:49;20.50;92.10
1225;DHT22;602;48.000;7.840;2022-07-18T03:18:16;20.50;92.10
1225;DHT22;602;48.000;7.840;2022-07-18T03:20:44;20.60;92.30
1225;DHT22;602;48.000;7.840;2022-07-18T03:23:11;20.60;92.30
1225;DHT22;602;48.000;7.840;2022-07-18T03:25:38;20.70;92.60
1225;DHT22;602;48.000;7.840;2022-07-18T03:28:05;20.70;92.50
1225;DHT22;602;48.000;7.840;2022-07-18T03:30:32;20.70;92.10
1225;DHT22;602;48.000;7.840;2022-07-18T03:32:59;20.70;92.30
1225;DHT22;602;48.000;7.840;2022-07-18T03:35:26;20.70;92.20
1225;DHT22;602;48.000;7.840;2022-07-18T03:37:54;20.70;92.30
1225;DHT22;602;48.000;7.840;2022-07-18T03:40:21;20.80;92.20
1225;DHT22;602;48.000;7.840;2022-07-18T03:42:48;20.80;92.20
1225;DHT22;602;48.000;7.840;2022-07-18T03:45:14;20.70;92.30
1225;DHT22;602;48.000;7.840;2022-07-18T03:47:41;20.70;92.40
1225;DHT22;602;48.000;7.840;2022-07-18T03:50:09;20.80;92.20
1225;DHT22;602;48.000;7.840;2022-07-18T03:52:35;20.70;92.10
1225;DHT22;602;48.000;7.840;2022-07-18T03:55:06;20.70;92.00
1225;DHT22;602;48.000;7.840;2022-07-18T03:57:33;20.60;92.20
1225;DHT22;602;48.000;7.840;2022-07-18T04:00:00;20.60;92.10
1225;DHT22;602;48.000;7.840;2022-07-18T04:02:27;20.40;91.50
1225;DHT22;602;48.000;7.840;2022-07-18T04:04:54;20.30;91.30
1225;DHT22;602;48.000;7.840;2022-07-18T04:07:20;20.40;91.40
1225;DHT22;602;48.000;7.840;2022-07-18T04:09:47;20.20;90.90
1225;DHT22;602;48.000;7.840;2022-07-18T04:12:16;20.10;91.10
1225;DHT22;602;48.000;7.840;2022-07-18T04:14:42;20.10;91.30
1225;DHT22;602;48.000;7.840;2022-07-18T04:17:09;20.00;91.20
1225;DHT22;602;48.000;7.840;2022-07-18T04:19:36;20.00;91.30
1225;DHT22;602;48.000;7.840;2022-07-18T04:22:03;19.90;91.10
1225;DHT22;602;48.000;7.840;2022-07-18T04:24:30;19.90;91.30
1225;DHT22;602;48.000;7.840;2022-07-18T04:26:56;19.70;91.40
1225;DHT22;602;48.000;7.840;2022-07-18T04:29:25;19.70;91.50
1225;DHT22;602;48.000;7.840;2022-07-18T04:31:52;19.70;91.50
1225;DHT22;602;48.000;7.840;2022-07-18T04:34:19;19.60;91.50
1225;DHT22;602;48.000;7.840;2022-07-18T04:36:45;19.60;91.70
1225;DHT22;602;48.000;7.840;2022-07-18T04:39:12;19.60;91.90
1225;DHT22;602;48.000;7.840;2022-07-18T04:41:39;19.50;92.00
1225;DHT22;602;48.000;7.840;2022-07-18T04:44:06;19.60;92.10
1225;DHT22;602;48.000;7.840;2022-07-18T04:46:34;19.50;92.10
1225;DHT22;602;48.000;7.840;2022-07-18T04:49:01;19.60;92.20
1225;DHT22;602;48.000;7.840;2022-07-18T04:51:28;19.70;91.90
1225;DHT22;602;48.000;7.840;2022-07-18T04:53:55;19.70;92.00
1225;DHT22;602;48.000;7.840;2022-07-18T04:56:22;19.80;92.00
1225;DHT22;602;48.000;7.840;2022-07-18T04:58:49;19.80;91.80
1225;DHT22;602;48.000;7.840;2022-07-18T05:01:16;19.80;91.80
1225;DHT22;602;48.000;7.840;2022-07-18T05:03:44;20.00;91.90
1225;DHT22;602;48.000;7.840;2022-07-18T05:06:11;20.10;91.80
1225;DHT22;602;48.000;7.840;2022-07-18T05:08:38;20.10;91.80
1225;DHT22;602;48.000;7.840;2022-07-18T05:11:06;20.30;91.90
1225;DHT22;602;48.000;7.840;2022-07-18T05:13:33;20.30;91.90
1225;DHT22;602;48.000;7.840;2022-07-18T05:16:00;20.40;92.40
1225;DHT22;602;48.000;7.840;2022-07-18T05:18:27;20.50;93.00
1225;DHT22;602;48.000;7.840;2022-07-18T05:20:55;20.50;93.30
1225;DHT22;602;48.000;7.840;2022-07-18T05:23:22;20.60;93.40
1225;DHT22;602;48.000;7.840;2022-07-18T05:25:49;20.60;93.20
1225;DHT22;602;48.000;7.840;2022-07-18T05:28:16;20.60;92.70
1225;DHT22;602;48.000;7.840;2022-07-18T05:30:43;20.70;91.90
1225;DHT22;602;48.000;7.840;2022-07-18T05:33:10;20.80;91.70
1225;DHT22;602;48.000;7.840;2022-07-18T05:35:37;20.80;91.60
1225;DHT22;602;48.000;7.840;2022-07-18T05:38:05;20.80;91.60
1225;DHT22;602;48.000;7.840;2022-07-18T05:40:32;20.80;91.90
1225;DHT22;602;48.000;7.840;2022-07-18T05:42:59;20.90;91.90
1225;DHT22;602;48.000;7.840;2022-07-18T05:45:26;21.00;92.00
1225;DHT22;602;48.000;7.840;2022-07-18T05:47:53;21.00;91.90
1225;DHT22;602;48.000;7.840;2022-07-18T05:50:21;21.10;91.90
1225;DHT22;602;48.000;7.840;2022-07-18T05:52:48;21.20;91.90
1225;DHT22;602;48.000;7.840;2022-07-18T05:55:17;21.20;92.10
1225;DHT22;602;48.000;7.840;2022-07-18T05:57:44;21.20;92.00
1225;DHT22;602;48.000;7.840;2022-07-18T06:00:11;21.30;92.00
1225;DHT22;602;48.000;7.840;2022-07-18T06:02:38;21.30;91.70
1225;DHT22;602;48.000;7.840;2022-07-18T06:05:07;21.40;91.40
1225;DHT22;602;48.000;7.840;2022-07-18T06:07:34;21.40;91.60
1225;DHT22;602;48.000;7.840;2022-07-18T06:10:01;21.50;91.90
1225;DHT22;602;48.000;7.840;2022-07-18T06:12:30;21.50;91.80
1225;DHT22;602;48.000;7.840;2022-07-18T06:14:57;21.60;91.80
1225;DHT22;602;48.000;7.840;2022-07-18T06:17:24;21.60;92.20
1225;DHT22;602;48.000;7.840;2022-07-18T06:19:51;21.70;92.20
1225;DHT22;602;48.000;7.840;2022-07-18T06:22:18;21.70;92.70
1225;DHT22;602;48.000;7.840;2022-07-18T06:24:46;21.80;92.80
1225;DHT22;602;48.000;7.840;2022-07-18T06:27:13;21.80;93.10
1225;DHT22;602;48.000;7.840;2022-07-18T06:29:41;21.90;93.40
1225;DHT22;602;48.000;7.840;2022-07-18T06:32:09;21.90;93.10
1225;DHT22;602;48.000;7.840;2022-07-18T06:37:15;22.00;92.90
1225;DHT22;602;48.000;7.840;2022-07-18T06:39:42;22.00;93.50
1225;DHT22;602;48.000;7.840;2022-07-18T06:42:08;22.00;93.60
1225;DHT22;602;48.000;7.840;2022-07-18T06:44:35;22.10;93.20
1225;DHT22;602;48.000;7.840;2022-07-18T06:47:03;22.20;93.10
1225;DHT22;602;48.000;7.840;2022-07-18T06:49:36;22.20;93.20
1225;DHT22;602;48.000;7.840;2022-07-18T06:52:07;22.40;93.70
1225;DHT22;602;48.000;7.840;2022-07-18T06:54:37;22.50;94.10
1225;DHT22;602;48.000;7.840;2022-07-18T06:57:06;22.60;94.10
1225;DHT22;602;48.000;7.840;2022-07-18T06:59:35;22.80;94.10
1225;DHT22;602;48.000;7.840;2022-07-18T07:02:04;22.90;94.40
1225;DHT22;602;48.000;7.840;2022-07-18T07:04:31;23.10;94.40
1225;DHT22;602;48.000;7.840;2022-07-18T07:06:57;23.30;94.10
1225;DHT22;602;48.000;7.840;2022-07-18T07:09:24;23.40;94.30
1225;DHT22;602;48.000;7.840;2022-07-18T07:11:51;23.60;94.20
1225;DHT22;602;48.000;7.840;2022-07-18T07:14:18;23.90;94.20
1225;DHT22;602;48.000;7.840;2022-07-18T07:16:45;24.10;93.90
1225;DHT22;602;48.000;7.840;2022-07-18T07:19:13;24.50;93.00
1225;DHT22;602;48.000;7.840;2022-07-18T07:21:40;24.70;93.30
1225;DHT22;602;48.000;7.840;2022-07-18T07:24:07;25.10;93.40
1225;DHT22;602;48.000;7.840;2022-07-18T07:26:34;25.50;93.00
1225;DHT22;602;48.000;7.840;2022-07-18T07:29:01;25.90;92.10
1225;DHT22;602;48.000;7.840;2022-07-18T07:31:27;26.20;91.30
1225;DHT22;602;48.000;7.840;2022-07-18T07:33:54;26.50;91.00
1225;DHT22;602;48.000;7.840;2022-07-18T07:36:23;27.00;91.00
1225;DHT22;602;48.000;7.840;2022-07-18T07:38:50;27.40;88.40
1225;DHT22;602;48.000;7.840;2022-07-18T07:41:16;27.80;87.40
1225;DHT22;602;48.000;7.840;2022-07-18T07:43:43;28.30;85.30
1225;DHT22;602;48.000;7.840;2022-07-18T07:46:10;28.60;84.50
1225;DHT22;602;48.000;7.840;2022-07-18T07:48:37;29.00;83.80
1225;DHT22;602;48.000;7.840;2022-07-18T07:51:04;29.40;83.50
1225;DHT22;602;48.000;7.840;2022-07-18T07:53:32;29.50;79.20
1225;DHT22;602;48.000;7.840;2022-07-18T07:55:59;29.60;79.50
1225;DHT22;602;48.000;7.840;2022-07-18T07:58:26;29.90;80.60
1225;DHT22;602;48.000;7.840;2022-07-18T08:00:53;30.30;78.20
1225;DHT22;602;48.000;7.840;2022-07-18T08:03:20;30.50;74.90
1225;DHT22;602;48.000;7.840;2022-07-18T08:05:49;30.70;75.40
1225;DHT22;602;48.000;7.840;2022-07-18T08:08:17;31.00;74.20
1225;DHT22;602;48.000;7.840;2022-07-18T08:10:45;31.20;72.80
1225;DHT22;602;48.000;7.840;2022-07-18T08:13:14;31.50;72.30
1225;DHT22;602;48.000;7.840;2022-07-18T08:15:41;31.70;72.30
1225;DHT22;602;48.000;7.840;2022-07-18T08:18:08;31.90;71.50
1225;DHT22;602;48.000;7.840;2022-07-18T08:20:35;32.10;70.50
1225;DHT22;602;48.000;7.840;2022-07-18T08:23:03;32.20;70.50
1225;DHT22;602;48.000;7.840;2022-07-18T08:25:32;32.50;69.20
1225;DHT22;602;48.000;7.840;2022-07-18T08:28:01;32.70;68.70
1225;DHT22;602;48.000;7.840;2022-07-18T08:30:29;32.90;68.60
1225;DHT22;602;48.000;7.840;2022-07-18T08:32:56;33.00;68.30
1225;DHT22;602;48.000;7.840;2022-07-18T08:35:24;33.40;68.50
1225;DHT22;602;48.000;7.840;2022-07-18T08:37:51;33.50;69.20
1225;DHT22;602;48.000;7.840;2022-07-18T08:40:17;33.60;66.70
1225;DHT22;602;48.000;7.840;2022-07-18T08:42:44;33.90;65.50
1225;DHT22;602;48.000;7.840;2022-07-18T08:45:12;34.00;65.30
1225;DHT22;602;48.000;7.840;2022-07-18T08:47:39;34.20;65.10
1225;DHT22;602;48.000;7.840;2022-07-18T08:50:07;34.20;65.60
1225;DHT22;602;48.000;7.840;2022-07-18T08:52:35;34.20;64.10
1225;DHT22;602;48.000;7.840;2022-07-18T08:55:05;34.40;64.70
1225;DHT22;602;48.000;7.840;2022-07-18T08:57:33;34.20;62.80
1225;DHT22;602;48.000;7.840;2022-07-18T09:00:01;34.40;65.00
1225;DHT22;602;48.000;7.840;2022-07-18T09:02:29;34.90;63.80
1225;DHT22;602;48.000;7.840;2022-07-18T09:04:56;35.10;63.20
1225;DHT22;602;48.000;7.840;2022-07-18T09:07:27;35.30;62.00
1225;DHT22;602;48.000;7.840;2022-07-18T09:09:57;35.50;61.20
1225;DHT22;602;48.000;7.840;2022-07-18T09:12:25;35.90;61.90
1225;DHT22;602;48.000;7.840;2022-07-18T09:14:52;35.90;61.90
1225;DHT22;602;48.000;7.840;2022-07-18T09:17:22;36.10;60.20
1225;DHT22;602;48.000;7.840;2022-07-18T09:20:01;36.20;59.30
1225;DHT22;602;48.000;7.840;2022-07-18T09:22:30;36.30;59.50
1225;DHT22;602;48.000;7.840;2022-07-18T09:25:03;36.00;59.20
1225;DHT22;602;48.000;7.840;2022-07-18T09:27:33;36.20;59.30
1225;DHT22;602;48.000;7.840;2022-07-18T09:30:23;36.40;59.00
1225;DHT22;602;48.000;7.840;2022-07-18T09:32:53;36.60;59.30
1225;DHT22;602;48.000;7.840;2022-07-18T09:35:24;36.60;59.80
1225;DHT22;602;48.000;7.840;2022-07-18T09:37:54;36.70;58.20
1225;DHT22;602;48.000;7.840;2022-07-18T09:40:23;36.70;57.70
1225;DHT22;602;48.000;7.840;2022-07-18T09:42:51;36.70;57.40
1225;DHT22;602;48.000;7.840;2022-07-18T09:45:27;37.00;57.90
1225;DHT22;602;48.000;7.840;2022-07-18T09:47:57;37.40;57.50
1225;DHT22;602;48.000;7.840;2022-07-18T09:50:28;37.50;56.30
1225;DHT22;602;48.000;7.840;2022-07-18T09:53:07;37.40;56.20
1225;DHT22;602;48.000;7.840;2022-07-18T09:55:35;37.70;56.60
1225;DHT22;602;48.000;7.840;2022-07-18T09:58:06;38.00;55.30
1225;DHT22;602;48.000;7.840;2022-07-18T10:00:35;38.50;54.30
1225;DHT22;602;48.000;7.840;2022-07-18T10:03:03;38.50;55.90
1225;DHT22;602;48.000;7.840;2022-07-18T10:05:34;38.70;56.40
1225;DHT22;602;48.000;7.840;2022-07-18T10:08:04;38.80;54.30
1225;DHT22;602;48.000;7.840;2022-07-18T10:10:31;38.80;53.10
1225;DHT22;602;48.000;7.840;2022-07-18T10:12:59;38.80;54.40
1225;DHT22;602;48.000;7.840;2022-07-18T10:15:29;39.00;54.00
1225;DHT22;602;48.000;7.840;2022-07-18T10:17:57;39.10;53.10
1225;DHT22;602;48.000;7.840;2022-07-18T10:20:30;39.30;54.30
1225;DHT22;602;48.000;7.840;2022-07-18T10:23:02;38.90;53.30
1225;DHT22;602;48.000;7.840;2022-07-18T10:25:32;39.10;53.00
1225;DHT22;602;48.000;7.840;2022-07-18T10:28:07;39.30;53.00
1225;DHT22;602;48.000;7.840;2022-07-18T10:30:37;39.30;50.50
1225;DHT22;602;48.000;7.840;2022-07-18T10:33:37;39.50;52.30
1225;DHT22;602;48.000;7.840;2022-07-18T10:36:09;39.60;52.10
1225;DHT22;602;48.000;7.840;2022-07-18T10:38:38;40.00;52.50
1225;DHT22;602;48.000;7.840;2022-07-18T10:41:10;40.30;52.20
1225;DHT22;602;48.000;7.840;2022-07-18T10:43:39;40.20;50.10
1225;DHT22;602;48.000;7.840;2022-07-18T10:46:07;40.40;49.70
1225;DHT22;602;48.000;7.840;2022-07-18T10:48:52;40.50;49.70
1225;DHT22;602;48.000;7.840;2022-07-18T10:51:22;40.50;49.40
1225;DHT22;602;48.000;7.840;2022-07-18T10:54:09;40.40;49.80
1225;DHT22;602;48.000;7.840;2022-07-18T10:57:06;40.50;49.90
1225;DHT22;602;48.000;7.840;2022-07-18T10:59:37;41.10;48.80
1225;DHT22;602;48.000;7.840;2022-07-18T11:02:07;41.20;49.80
1225;DHT22;602;48.000;7.840;2022-07-18T11:04:37;41.30;48.40
1225;DHT22;602;48.000;7.840;2022-07-18T11:07:11;41.50;48.20
1225;DHT22;602;48.000;7.840;2022-07-18T11:09:42;41.60;47.80
1225;DHT22;602;48.000;7.840;2022-07-18T11:12:24;41.60;46.90
1225;DHT22;602;48.000;7.840;2022-07-18T11:15:07;41.60;48.40
1225;DHT22;602;48.000;7.840;2022-07-18T11:17:59;41.40;47.90
1225;DHT22;602;48.000;7.840;2022-07-18T11:20:29;41.40;47.60
1225;DHT22;602;48.000;7.840;2022-07-18T11:22:56;41.30;48.50
1225;DHT22;602;48.000;7.840;2022-07-18T11:25:27;41.50;47.70
1225;DHT22;602;48.000;7.840;2022-07-18T11:27:54;42.00;47.00
1225;DHT22;602;48.000;7.840;2022-07-18T11:30:22;42.10;47.00
1225;DHT22;602;48.000;7.840;2022-07-18T11:32:50;42.30;46.30
1225;DHT22;602;48.000;7.840;2022-07-18T11:35:21;42.50;46.80
1225;DHT22;602;48.000;7.840;2022-07-18T11:37:49;42.60;46.10
1225;DHT22;602;48.000;7.840;2022-07-18T11:40:17;42.30;46.20
1225;DHT22;602;48.000;7.840;2022-07-18T11:42:45;42.20;46.00
1225;DHT22;602;48.000;7.840;2022-07-18T11:45:14;42.30;46.90
1225;DHT22;602;48.000;7.840;2022-07-18T11:47:49;42.20;46.70
1225;DHT22;602;48.000;7.840;2022-07-18T11:50:18;42.30;46.30
1225;DHT22;602;48.000;7.840;2022-07-18T11:52:45;42.30;45.90
1225;DHT22;602;48.000;7.840;2022-07-18T11:55:13;42.20;45.60
1225;DHT22;602;48.000;7.840;2022-07-18T11:57:40;42.10;45.00
1225;DHT22;602;48.000;7.840;2022-07-18T12:00:19;42.40;46.00
1225;DHT22;602;48.000;7.840;2022-07-18T12:03:06;42.40;45.60
1225;DHT22;602;48.000;7.840;2022-07-18T12:05:35;42.70;46.20
1225;DHT22;602;48.000;7.840;2022-07-18T12:08:30;43.10;46.50
1225;DHT22;602;48.000;7.840;2022-07-18T12:11:10;43.00;45.30
1225;DHT22;602;48.000;7.840;2022-07-18T12:13:48;42.90;45.20
1225;DHT22;602;48.000;7.840;2022-07-18T12:16:30;43.20;45.80
1225;DHT22;602;48.000;7.840;2022-07-18T12:18:58;43.50;44.60
1225;DHT22;602;48.000;7.840;2022-07-18T12:21:39;43.70;44.60
1225;DHT22;602;48.000;7.840;2022-07-18T12:24:20;44.00;43.80
1225;DHT22;602;48.000;7.840;2022-07-18T12:26:49;44.10;44.00
1225;DHT22;602;48.000;7.840;2022-07-18T12:29:23;44.10;44.30
1225;DHT22;602;48.000;7.840;2022-07-18T12:31:51;43.90;44.50
1225;DHT22;602;48.000;7.840;2022-07-18T12:34:18;44.00;43.60
1225;DHT22;602;48.000;7.840;2022-07-18T12:36:54;43.80;44.40
1225;DHT22;602;48.000;7.840;2022-07-18T12:39:29;43.50;43.70
1225;DHT22;602;48.000;7.840;2022-07-18T12:41:57;43.50;44.10
1225;DHT22;602;48.000;7.840;2022-07-18T12:44:24;43.90;44.20
1225;DHT22;602;48.000;7.840;2022-07-18T12:46:52;44.10;44.00
1225;DHT22;602;48.000;7.840;2022-07-18T12:49:20;44.10;44.00
1225;DHT22;602;48.000;7.840;2022-07-18T12:51:47;44.10;43.60
1225;DHT22;602;48.000;7.840;2022-07-18T12:54:15;43.80;42.70
1225;DHT22;602;48.000;7.840;2022-07-18T12:56:42;43.80;43.40
1225;DHT22;602;48.000;7.840;2022-07-18T12:59:09;43.90;43.10
1225;DHT22;602;48.000;7.840;2022-07-18T13:01:36;44.20;42.60
1225;DHT22;602;48.000;7.840;2022-07-18T13:04:05;43.80;43.10
1225;DHT22;602;48.000;7.840;2022-07-18T13:06:32;43.80;42.90
1225;DHT22;602;48.000;7.840;2022-07-18T13:08:59;43.70;43.70
1225;DHT22;602;48.000;7.840;2022-07-18T13:11:25;43.80;42.90
1225;DHT22;602;48.000;7.840;2022-07-18T13:13:52;43.80;42.60
1225;DHT22;602;48.000;7.840;2022-07-18T13:16:19;43.60;42.20
1225;DHT22;602;48.000;7.840;2022-07-18T13:18:46;43.60;42.30
1225;DHT22;602;48.000;7.840;2022-07-18T13:21:14;43.40;42.70
1225;DHT22;602;48.000;7.840;2022-07-18T13:23:42;43.00;42.90
1225;DHT22;602;48.000;7.840;2022-07-18T13:26:08;43.00;42.90
1225;DHT22;602;48.000;7.840;2022-07-18T13:28:35;42.80;43.00
1225;DHT22;602;48.000;7.840;2022-07-18T13:31:02;42.90;43.60
1225;DHT22;602;48.000;7.840;2022-07-18T13:33:29;42.80;43.50
1225;DHT22;602;48.000;7.840;2022-07-18T13:35:56;42.70;43.30
1225;DHT22;602;48.000;7.840;2022-07-18T13:38:24;42.50;43.70
1225;DHT22;602;48.000;7.840;2022-07-18T13:40:51;41.70;43.70
1225;DHT22;602;48.000;7.840;2022-07-18T13:43:18;41.50;43.90
1225;DHT22;602;48.000;7.840;2022-07-18T13:45:45;41.50;44.30
1225;DHT22;602;48.000;7.840;2022-07-18T13:48:12;41.50;44.40
1225;DHT22;602;48.000;7.840;2022-07-18T13:50:39;41.70;44.60
1225;DHT22;602;48.000;7.840;2022-07-18T13:53:06;41.70;44.50
1225;DHT22;602;48.000;7.840;2022-07-18T13:55:34;41.70;44.30
1225;DHT22;602;48.000;7.840;2022-07-18T13:58:01;41.20;44.20
1225;DHT22;602;48.000;7.840;2022-07-18T14:00:28;41.20;44.60
1225;DHT22;602;48.000;7.840;2022-07-18T14:02:55;40.80;45.20
1225;DHT22;602;48.000;7.840;2022-07-18T14:05:22;40.70;45.00
1225;DHT22;602;48.000;7.840;2022-07-18T14:07:50;40.40;45.30
1225;DHT22;602;48.000;7.840;2022-07-18T14:10:18;40.30;45.90
1225;DHT22;602;48.000;7.840;2022-07-18T14:12:46;40.10;46.30
1225;DHT22;602;48.000;7.840;2022-07-18T14:15:13;40.10;46.40
1225;DHT22;602;48.000;7.840;2022-07-18T14:17:41;40.00;46.20
1225;DHT22;602;48.000;7.840;2022-07-18T14:20:08;40.00;46.40
1225;DHT22;602;48.000;7.840;2022-07-18T14:22:36;39.90;46.70
1225;DHT22;602;48.000;7.840;2022-07-18T14:25:04;39.90;46.90
1225;DHT22;602;48.000;7.840;2022-07-18T14:27:31;39.70;47.00
1225;DHT22;602;48.000;7.840;2022-07-18T14:30:00;39.30;47.40
1225;DHT22;602;48.000;7.840;2022-07-18T14:32:27;39.10;47.40
1225;DHT22;602;48.000;7.840;2022-07-18T14:34:54;39.20;48.40
1225;DHT22;602;48.000;7.840;2022-07-18T14:37:20;39.20;48.40
1225;DHT22;602;48.000;7.840;2022-07-18T14:39:47;39.10;48.50
1225;DHT22;602;48.000;7.840;2022-07-18T14:42:14;39.00;48.90
1225;DHT22;602;48.000;7.840;2022-07-18T14:44:41;38.90;48.20
1225;DHT22;602;48.000;7.840;2022-07-18T14:47:09;38.60;48.00
1225;DHT22;602;48.000;7.840;2022-07-18T14:49:36;38.60;48.60
1225;DHT22;602;48.000;7.840;2022-07-18T14:52:03;38.50;48.70
1225;DHT22;602;48.000;7.840;2022-07-18T14:54:30;38.40;48.70
1225;DHT22;602;48.000;7.840;2022-07-18T14:56:57;38.20;49.10
1225;DHT22;602;48.000;7.840;2022-07-18T14:59:24;38.30;48.60
1225;DHT22;602;48.000;7.840;2022-07-18T15:01:51;38.30;49.10
1225;DHT22;602;48.000;7.840;2022-07-18T15:04:20;38.10;49.10
1225;DHT22;602;48.000;7.840;2022-07-18T15:06:46;37.90;49.30
1225;DHT22;602;48.000;7.840;2022-07-18T15:09:14;38.00;49.40
1225;DHT22;602;48.000;7.840;2022-07-18T15:11:41;37.90;49.20
1225;DHT22;602;48.000;7.840;2022-07-18T15:14:08;37.80;49.40
1225;DHT22;602;48.000;7.840;2022-07-18T15:16:35;37.80;49.60
1225;DHT22;602;48.000;7.840;2022-07-18T15:19:03;37.80;49.60
1225;DHT22;602;48.000;7.840;2022-07-18T15:21:31;37.70;49.40
1225;DHT22;602;48.000;7.840;2022-07-18T15:23:58;37.50;49.50
1225;DHT22;602;48.000;7.840;2022-07-18T15:26:25;37.40;50.10
1225;DHT22;602;48.000;7.840;2022-07-18T15:28:52;37.50;50.30
1225;DHT22;602;48.000;7.840;2022-07-18T15:31:19;37.50;50.70
1225;DHT22;602;48.000;7.840;2022-07-18T15:33:46;37.60;50.30
1225;DHT22;602;48.000;7.840;2022-07-18T15:36:13;37.50;50.40
1225;DHT22;602;48.000;7.840;2022-07-18T15:38:41;37.30;50.40
1225;DHT22;602;48.000;7.840;2022-07-18T15:41:10;37.30;50.80
1225;DHT22;602;48.000;7.840;2022-07-18T15:43:38;37.20;50.80
1225;DHT22;602;48.000;7.840;2022-07-18T15:46:05;37.20;50.80
1225;DHT22;602;48.000;7.840;2022-07-18T15:48:32;37.20;50.90
1225;DHT22;602;48.000;7.840;2022-07-18T15:50:59;37.00;51.00
1225;DHT22;602;48.000;7.840;2022-07-18T15:53:26;37.00;51.40
1225;DHT22;602;48.000;7.840;2022-07-18T15:55:54;36.80;51.20
1225;DHT22;602;48.000;7.840;2022-07-18T15:58:21;36.90;51.40
1225;DHT22;602;48.000;7.840;2022-07-18T16:00:48;36.80;51.70
1225;DHT22;602;48.000;7.840;2022-07-18T16:03:15;36.80;52.60
1225;DHT22;602;48.000;7.840;2022-07-18T16:05:41;36.70;51.50
1225;DHT22;602;48.000;7.840;2022-07-18T16:08:08;36.60;51.60
1225;DHT22;602;48.000;7.840;2022-07-18T16:10:36;36.50;51.50
1225;DHT22;602;48.000;7.840;2022-07-18T16:13:05;36.40;51.60
1225;DHT22;602;48.000;7.840;2022-07-18T16:15:32;36.30;51.60
1225;DHT22;602;48.000;7.840;2022-07-18T16:17:58;36.20;52.20
1225;DHT22;602;48.000;7.840;2022-07-18T16:20:25;36.20;52.50
1225;DHT22;602;48.000;7.840;2022-07-18T16:22:52;36.10;52.30
1225;DHT22;602;48.000;7.840;2022-07-18T16:25:19;36.10;51.90
1225;DHT22;602;48.000;7.840;2022-07-18T16:27:46;36.20;52.30